createdAt,value
2023-04-27T00:00:34.476Z,94681.00
2023-04-27T00:01:34.481Z,94679.00
2023-04-27T00:02:34.634Z,94677.00
2023-04-27T00:03:34.627Z,94677.00
2023-04-27T00:04:34.843Z,94675.00
2023-04-27T00:05:34.686Z,94675.00
2023-04-27T00:06:34.670Z,94677.00
2023-04-27T00:07:34.698Z,94675.00
2023-04-27T00:08:34.760Z,94675.00
2023-04-27T00:09:34.905Z,94675.00
2023-04-27T00:10:34.901Z,94675.00
2023-04-27T00:11:35.150Z,94675.00
2023-04-27T00:12:35.066Z,94673.00
2023-04-27T00:13:35.122Z,94675.00
2023-04-27T00:14:35.163Z,94677.00
2023-04-27T00:15:35.221Z,94677.00
2023-04-27T00:16:35.300Z,94673.00
2023-04-27T00:17:35.380Z,94675.00
2023-04-27T00:18:35.440Z,94673.00
2023-04-27T00:19:35.484Z,94673.00
2023-04-27T00:20:35.529Z,94671.00
2023-04-27T00:21:35.625Z,94669.00
2023-04-27T00:22:35.641Z,94667.00
2023-04-27T00:23:35.703Z,94669.00
2023-04-27T00:24:35.786Z,94667.00
2023-04-27T00:25:36.625Z,94669.00
2023-04-27T00:26:35.896Z,94675.00
2023-04-27T00:27:35.967Z,94669.00
2023-04-27T00:28:36.004Z,94673.00
2023-04-27T00:29:36.061Z,94667.00
2023-04-27T00:30:36.202Z,94673.00
2023-04-27T00:31:36.243Z,94665.00
2023-04-27T00:32:36.338Z,94667.00
2023-04-27T00:33:36.331Z,94665.00
2023-04-27T00:34:36.391Z,94667.00
2023-04-27T00:35:36.450Z,94667.00
2023-04-27T00:36:36.473Z,94665.00
2023-04-27T00:37:36.569Z,94667.00
2023-04-27T00:38:36.659Z,94665.00
2023-04-27T00:39:36.692Z,94664.00
2023-04-27T00:40:36.726Z,94664.00
2023-04-27T00:41:36.758Z,94664.00
2023-04-27T00:42:36.849Z,94664.00
2023-04-27T00:43:36.894Z,94664.00
2023-04-27T00:44:39.283Z,94665.00
2023-04-27T00:45:36.927Z,94664.00
2023-04-27T00:46:36.877Z,94662.00
2023-04-27T00:47:36.895Z,94662.00
2023-04-27T00:48:36.883Z,94662.00
2023-04-27T00:49:36.877Z,94660.00
2023-04-27T00:50:36.857Z,94662.00
2023-04-27T00:51:36.904Z,94660.00
2023-04-27T00:52:36.851Z,94664.00
2023-04-27T00:53:36.870Z,94662.00
2023-04-27T00:54:36.841Z,94662.00
2023-04-27T00:55:36.841Z,94662.00
2023-04-27T00:56:36.822Z,94662.00
2023-04-27T00:57:36.858Z,94662.00
2023-04-27T00:58:36.833Z,94664.00
2023-04-27T00:59:36.826Z,94662.00
2023-04-27T01:00:36.855Z,94660.00
2023-04-27T01:01:36.853Z,94660.00
2023-04-27T01:02:37.082Z,94660.00
2023-04-27T01:03:36.914Z,94660.00
2023-04-27T01:04:36.946Z,94660.00
2023-04-27T01:05:36.790Z,94664.00
2023-04-27T01:06:36.797Z,94662.00
2023-04-27T01:07:36.767Z,94662.00
2023-04-27T01:08:36.731Z,94660.00
2023-04-27T01:09:36.728Z,94665.00
2023-04-27T01:10:36.735Z,94664.00
2023-04-27T01:11:36.721Z,94667.00
2023-04-27T01:12:36.742Z,94665.00
2023-04-27T01:13:36.734Z,94665.00
2023-04-27T01:14:36.713Z,94664.00
2023-04-27T01:15:36.809Z,94662.00
2023-04-27T01:16:36.709Z,94664.00
2023-04-27T01:17:36.767Z,94662.00
2023-04-27T01:18:36.696Z,94658.00
2023-04-27T01:19:36.670Z,94660.00
2023-04-27T01:20:36.720Z,94658.00
2023-04-27T01:21:36.655Z,94658.00
2023-04-27T01:22:36.654Z,94658.00
2023-04-27T01:23:36.721Z,94658.00
2023-04-27T01:24:36.720Z,94658.00
2023-04-27T01:25:36.781Z,94650.00
2023-04-27T01:26:36.859Z,94658.00
2023-04-27T01:27:36.936Z,94646.00
2023-04-27T01:28:36.946Z,94650.00
2023-04-27T01:29:37.041Z,94658.00
2023-04-27T01:30:37.104Z,94648.00
2023-04-27T01:31:37.237Z,94648.00
2023-04-27T01:32:37.217Z,94648.00
2023-04-27T01:33:37.234Z,94648.00
2023-04-27T01:34:37.282Z,94642.00
2023-04-27T01:35:37.327Z,94644.00
2023-04-27T01:36:37.408Z,94648.00
2023-04-27T01:37:37.498Z,94646.00
2023-04-27T01:38:37.531Z,94648.00
2023-04-27T01:39:37.593Z,94650.00
2023-04-27T01:40:37.633Z,94650.00
2023-04-27T01:41:37.679Z,94648.00
2023-04-27T01:42:37.770Z,94646.00
2023-04-27T01:43:37.825Z,94646.00
2023-04-27T01:44:37.955Z,94646.00
2023-04-27T01:45:38.000Z,94644.00
2023-04-27T01:46:38.067Z,94646.00
2023-04-27T01:47:38.249Z,94644.00
2023-04-27T01:48:38.078Z,94644.00
2023-04-27T01:49:38.162Z,94642.00
2023-04-27T01:50:38.221Z,94642.00
2023-04-27T01:51:38.242Z,94642.00
2023-04-27T01:52:38.330Z,94642.00
2023-04-27T01:53:38.346Z,94640.00
2023-04-27T01:54:38.412Z,94640.00
2023-04-27T01:55:38.454Z,94638.00
2023-04-27T01:56:38.567Z,94638.00
2023-04-27T01:57:38.594Z,94644.00
2023-04-27T01:58:38.666Z,94642.00
2023-04-27T01:59:38.700Z,94642.00
2023-04-27T02:00:38.757Z,94646.00
2023-04-27T02:01:38.856Z,94646.00
2023-04-27T02:02:38.991Z,94644.00
2023-04-27T02:03:39.010Z,94646.00
2023-04-27T02:04:39.154Z,94648.00
2023-04-27T02:05:39.125Z,94648.00
2023-04-27T02:06:39.170Z,94646.00
2023-04-27T02:07:39.182Z,94648.00
2023-04-27T02:08:39.274Z,94658.00
2023-04-27T02:09:39.283Z,94662.00
2023-04-27T02:10:39.368Z,94664.00
2023-04-27T02:11:39.445Z,94664.00
2023-04-27T02:12:39.458Z,94664.00
2023-04-27T02:13:39.526Z,94662.00
2023-04-27T02:14:39.596Z,94662.00
2023-04-27T02:15:39.660Z,94660.00
2023-04-27T02:16:39.748Z,94658.00
2023-04-27T02:17:39.827Z,94650.00
2023-04-27T02:18:39.828Z,94658.00
2023-04-27T02:19:39.912Z,94662.00
2023-04-27T02:20:39.988Z,94664.00
2023-04-27T02:21:40.066Z,94667.00
2023-04-27T02:22:40.060Z,94669.00
2023-04-27T02:23:40.186Z,94671.00
2023-04-27T02:24:40.246Z,94673.00
2023-04-27T02:25:40.323Z,94677.00
2023-04-27T02:26:40.383Z,94679.00
2023-04-27T02:27:40.391Z,94681.00
2023-04-27T02:28:40.466Z,94681.00
2023-04-27T02:29:40.493Z,94681.00
2023-04-27T02:30:40.582Z,94683.00
2023-04-27T02:31:40.663Z,94677.00
2023-04-27T02:32:40.736Z,94675.00
2023-04-27T02:33:40.813Z,94673.00
2023-04-27T02:34:40.790Z,94675.00
2023-04-27T02:35:40.912Z,94675.00
2023-04-27T02:36:40.921Z,94683.00
2023-04-27T02:37:40.989Z,94685.00
2023-04-27T02:38:41.088Z,94685.00
2023-04-27T02:39:41.126Z,94683.00
2023-04-27T02:40:41.193Z,94681.00
2023-04-27T02:41:41.245Z,94681.00
2023-04-27T02:42:41.312Z,94681.00
2023-04-27T02:43:41.375Z,94681.00
2023-04-27T02:44:41.439Z,94677.00
2023-04-27T02:45:41.504Z,94677.00
2023-04-27T02:46:41.605Z,94675.00
2023-04-27T02:47:41.696Z,94673.00
2023-04-27T02:48:41.729Z,94673.00
2023-04-27T02:49:41.718Z,94675.00
2023-04-27T02:50:41.889Z,94673.00
2023-04-27T02:51:42.089Z,94675.00
2023-04-27T02:52:41.945Z,94675.00
2023-04-27T02:53:41.963Z,94675.00
2023-04-27T02:54:42.039Z,94673.00
2023-04-27T02:55:42.087Z,94671.00
2023-04-27T02:56:42.120Z,94669.00
2023-04-27T02:57:42.189Z,94667.00
2023-04-27T02:58:42.266Z,94665.00
2023-04-27T02:59:42.314Z,94665.00
2023-04-27T03:00:42.416Z,94665.00
2023-04-27T03:01:42.535Z,94664.00
2023-04-27T03:02:42.689Z,94664.00
2023-04-27T03:03:42.669Z,94664.00
2023-04-27T03:04:42.630Z,94664.00
2023-04-27T03:05:42.680Z,94664.00
2023-04-27T03:06:42.685Z,94664.00
2023-04-27T03:07:42.867Z,94665.00
2023-04-27T03:08:42.815Z,94667.00
2023-04-27T03:09:42.871Z,94669.00
2023-04-27T03:10:42.945Z,94669.00
2023-04-27T03:11:43.008Z,94671.00
2023-04-27T03:12:43.076Z,94675.00
2023-04-27T03:13:43.186Z,94671.00
2023-04-27T03:14:43.171Z,94671.00
2023-04-27T03:15:43.242Z,94669.00
2023-04-27T03:16:43.399Z,94669.00
2023-04-27T03:17:43.386Z,94667.00
2023-04-27T03:18:43.404Z,94667.00
2023-04-27T03:19:43.482Z,94665.00
2023-04-27T03:20:43.540Z,94665.00
2023-04-27T03:21:43.552Z,94665.00
2023-04-27T03:22:43.606Z,94665.00
2023-04-27T03:23:43.654Z,94665.00
2023-04-27T03:24:43.766Z,94667.00
2023-04-27T03:25:43.821Z,94673.00
2023-04-27T03:26:43.830Z,94677.00
2023-04-27T03:27:43.917Z,94677.00
2023-04-27T03:28:43.999Z,94679.00
2023-04-27T03:29:44.010Z,94681.00
2023-04-27T03:30:44.081Z,94683.00
2023-04-27T03:31:44.175Z,94685.00
2023-04-27T03:32:45.572Z,94687.00
2023-04-27T03:33:44.180Z,94689.00
2023-04-27T03:34:44.185Z,94693.00
2023-04-27T03:35:44.231Z,94691.00
2023-04-27T03:36:44.151Z,94693.00
2023-04-27T03:37:44.152Z,94693.00
2023-04-27T03:38:44.123Z,94691.00
2023-04-27T03:39:44.143Z,94689.00
2023-04-27T03:40:44.125Z,94687.00
2023-04-27T03:41:44.123Z,94685.00
2023-04-27T03:42:44.112Z,94685.00
2023-04-27T03:43:44.102Z,94685.00
2023-04-27T03:44:44.101Z,94685.00
2023-04-27T03:45:44.148Z,94685.00
2023-04-27T03:46:44.138Z,94683.00
2023-04-27T03:47:44.137Z,94683.00
2023-04-27T03:48:44.095Z,94685.00
2023-04-27T03:49:44.092Z,94687.00
2023-04-27T03:50:44.045Z,94687.00
2023-04-27T03:51:44.102Z,94691.00
2023-04-27T03:52:44.121Z,94693.00
2023-04-27T03:53:44.016Z,94693.00
2023-04-27T03:54:44.009Z,94695.00
2023-04-27T03:55:44.039Z,94695.00
2023-04-27T03:56:44.109Z,94695.00
2023-04-27T03:57:44.013Z,94699.00
2023-04-27T03:58:44.016Z,94701.00
2023-04-27T03:59:44.002Z,94703.00
2023-04-27T04:00:43.982Z,94705.00
2023-04-27T04:01:44.037Z,94703.00
2023-04-27T04:02:44.171Z,94707.00
2023-04-27T04:03:44.194Z,94709.00
2023-04-27T04:04:44.086Z,94711.00
2023-04-27T04:05:43.976Z,94714.00
2023-04-27T04:06:43.987Z,94716.00
2023-04-27T04:07:43.957Z,94720.00
2023-04-27T04:08:43.928Z,94722.00
2023-04-27T04:09:43.990Z,94720.00
2023-04-27T04:10:44.013Z,94718.00
2023-04-27T04:11:44.003Z,94718.00
2023-04-27T04:12:44.091Z,94718.00
2023-04-27T04:13:44.126Z,94722.00
2023-04-27T04:14:44.176Z,94722.00
2023-04-27T04:15:44.297Z,94720.00
2023-04-27T04:16:44.313Z,94720.00
2023-04-27T04:17:44.485Z,94722.00
2023-04-27T04:18:44.423Z,94722.00
2023-04-27T04:19:44.494Z,94724.00
2023-04-27T04:20:44.584Z,94726.00
2023-04-27T04:21:44.626Z,94726.00
2023-04-27T04:22:44.631Z,94728.00
2023-04-27T04:23:44.750Z,94732.00
2023-04-27T04:24:44.776Z,94734.00
2023-04-27T04:25:44.828Z,94738.00
2023-04-27T04:26:44.920Z,94738.00
2023-04-27T04:27:45.111Z,94740.00
2023-04-27T04:28:44.998Z,94742.00
2023-04-27T04:29:45.066Z,94744.00
2023-04-27T04:30:45.148Z,94744.00
2023-04-27T04:31:45.318Z,94748.00
2023-04-27T04:32:45.337Z,94748.00
2023-04-27T04:33:45.308Z,94744.00
2023-04-27T04:34:45.313Z,94748.00
2023-04-27T04:35:45.399Z,94750.00
2023-04-27T04:36:45.410Z,94750.00
2023-04-27T04:37:45.502Z,94750.00
2023-04-27T04:38:45.500Z,94750.00
2023-04-27T04:39:45.582Z,94751.00
2023-04-27T04:40:46.178Z,94759.00
2023-04-27T04:41:45.652Z,94761.00
2023-04-27T04:42:45.766Z,94761.00
2023-04-27T04:43:45.733Z,94759.00
2023-04-27T04:44:45.760Z,94757.00
2023-04-27T04:45:45.826Z,94767.00
2023-04-27T04:46:45.897Z,94769.00
2023-04-27T04:47:45.973Z,94771.00
2023-04-27T04:48:46.005Z,94771.00
2023-04-27T04:49:46.043Z,94775.00
2023-04-27T04:50:46.141Z,94777.00
2023-04-27T04:51:46.148Z,94775.00
2023-04-27T04:52:46.213Z,94773.00
2023-04-27T04:53:46.346Z,94773.00
2023-04-27T04:54:46.322Z,94775.00
2023-04-27T04:55:46.382Z,94777.00
2023-04-27T04:56:46.447Z,94777.00
2023-04-27T04:57:46.468Z,94779.00
2023-04-27T04:58:46.494Z,94781.00
2023-04-27T04:59:46.523Z,94783.00
2023-04-27T05:00:46.555Z,94779.00
2023-04-27T05:01:46.703Z,94781.00
2023-04-27T05:02:46.900Z,94783.00
2023-04-27T05:03:46.752Z,94783.00
2023-04-27T05:04:46.961Z,94785.00
2023-04-27T05:05:46.805Z,94785.00
2023-04-27T05:06:46.839Z,94789.00
2023-04-27T05:07:46.904Z,94789.00
2023-04-27T05:08:46.913Z,94791.00
2023-04-27T05:09:46.948Z,94791.00
2023-04-27T05:10:47.009Z,94791.00
2023-04-27T05:11:47.003Z,94793.00
2023-04-27T05:12:47.074Z,94801.00
2023-04-27T05:13:47.125Z,94803.00
2023-04-27T05:14:47.136Z,94805.00
2023-04-27T05:15:47.223Z,94801.00
2023-04-27T05:16:47.234Z,94799.00
2023-04-27T05:17:47.285Z,94799.00
2023-04-27T05:18:47.298Z,94799.00
2023-04-27T05:19:47.463Z,94801.00
2023-04-27T05:20:47.393Z,94799.00
2023-04-27T05:21:47.425Z,94803.00
2023-04-27T05:22:47.474Z,94801.00
2023-04-27T05:23:47.570Z,94803.00
2023-04-27T05:24:47.584Z,94805.00
2023-04-27T05:25:47.655Z,94806.00
2023-04-27T05:26:47.721Z,94806.00
2023-04-27T05:27:47.763Z,94806.00
2023-04-27T05:28:47.803Z,94806.00
2023-04-27T05:29:47.869Z,94806.00
2023-04-27T05:30:48.026Z,94805.00
2023-04-27T05:31:47.994Z,94810.00
2023-04-27T05:32:48.196Z,94810.00
2023-04-27T05:33:48.052Z,94812.00
2023-04-27T05:34:49.527Z,94812.00
2023-04-27T05:35:48.178Z,94814.00
2023-04-27T05:36:48.230Z,94816.00
2023-04-27T05:37:48.331Z,94814.00
2023-04-27T05:38:48.313Z,94816.00
2023-04-27T05:39:48.437Z,94812.00
2023-04-27T05:40:48.507Z,94816.00
2023-04-27T05:41:48.497Z,94816.00
2023-04-27T05:42:48.782Z,94814.00
2023-04-27T05:43:48.614Z,94816.00
2023-04-27T05:44:48.695Z,94812.00
2023-04-27T05:45:48.808Z,94814.00
2023-04-27T05:46:48.756Z,94818.00
2023-04-27T05:47:49.019Z,94818.00
2023-04-27T05:48:48.913Z,94818.00
2023-04-27T05:49:48.932Z,94818.00
2023-04-27T05:50:48.895Z,94822.00
2023-04-27T05:51:48.909Z,94820.00
2023-04-27T05:52:49.359Z,94820.00
2023-04-27T05:53:48.942Z,94818.00
2023-04-27T05:54:48.996Z,94820.00
2023-04-27T05:55:48.951Z,94824.00
2023-04-27T05:56:48.984Z,94824.00
2023-04-27T05:57:57.166Z,94828.00
2023-04-27T05:58:50.013Z,94826.00
2023-04-27T05:59:48.956Z,94820.00
2023-04-27T06:00:48.986Z,94822.00
2023-04-27T06:01:49.106Z,94818.00
2023-04-27T06:02:49.156Z,94820.00
2023-04-27T06:03:49.121Z,94820.00
2023-04-27T06:04:48.916Z,94822.00
2023-04-27T06:05:49.410Z,94822.00
2023-04-27T06:06:48.924Z,94820.00
2023-04-27T06:07:48.929Z,94816.00
2023-04-27T06:08:48.938Z,94818.00
2023-04-27T06:09:48.994Z,94822.00
2023-04-27T06:10:49.003Z,94824.00
2023-04-27T06:11:49.023Z,94830.00
2023-04-27T06:12:49.142Z,94830.00
2023-04-27T06:13:49.145Z,94826.00
2023-04-27T06:14:49.358Z,94830.00
2023-04-27T06:15:49.308Z,94828.00
2023-04-27T06:16:49.293Z,94828.00
2023-04-27T06:17:49.383Z,94828.00
2023-04-27T06:18:49.434Z,94832.00
2023-04-27T06:19:49.521Z,94830.00
2023-04-27T06:20:49.583Z,94834.00
2023-04-27T06:21:49.645Z,94824.00
2023-04-27T06:22:49.716Z,94838.00
2023-04-27T06:23:49.762Z,94838.00
2023-04-27T06:24:49.820Z,94840.00
2023-04-27T06:25:49.874Z,94840.00
2023-04-27T06:26:49.959Z,94836.00
2023-04-27T06:27:49.969Z,94832.00
2023-04-27T06:28:50.010Z,94834.00
2023-04-27T06:29:50.090Z,94832.00
2023-04-27T06:30:50.869Z,94836.00
2023-04-27T06:31:50.162Z,94836.00
2023-04-27T06:32:50.256Z,94834.00
2023-04-27T06:33:50.331Z,94838.00
2023-04-27T06:34:50.306Z,94836.00
2023-04-27T06:35:50.308Z,94842.00
2023-04-27T06:36:50.382Z,94840.00
2023-04-27T06:37:50.410Z,94836.00
2023-04-27T06:38:50.506Z,94840.00
2023-04-27T06:39:50.486Z,94840.00
2023-04-27T06:40:50.556Z,94840.00
2023-04-27T06:41:50.616Z,94842.00
2023-04-27T06:42:53.768Z,94844.00
2023-04-27T06:43:50.770Z,94840.00
2023-04-27T06:44:50.631Z,94840.00
2023-04-27T06:45:50.680Z,94840.00
2023-04-27T06:46:51.006Z,94840.00
2023-04-27T06:47:50.611Z,94842.00
2023-04-27T06:48:50.605Z,94842.00
2023-04-27T06:49:50.593Z,94842.00
2023-04-27T06:50:50.774Z,94844.00
2023-04-27T06:51:50.571Z,94844.00
2023-04-27T06:52:50.571Z,94846.00
2023-04-27T06:53:50.594Z,94848.00
2023-04-27T06:54:50.579Z,94848.00
2023-04-27T06:55:50.553Z,94844.00
2023-04-27T06:56:50.545Z,94846.00
2023-04-27T06:57:50.554Z,94848.00
2023-04-27T06:58:50.606Z,94850.00
2023-04-27T06:59:50.548Z,94846.00
2023-04-27T07:00:50.841Z,94848.00
2023-04-27T07:01:50.591Z,94848.00
2023-04-27T07:02:50.721Z,94850.00
2023-04-27T07:03:50.701Z,94848.00
2023-04-27T07:04:50.551Z,94848.00
2023-04-27T07:05:50.624Z,94850.00
2023-04-27T07:06:50.459Z,94853.00
2023-04-27T07:07:50.467Z,94850.00
2023-04-27T07:08:50.549Z,94852.00
2023-04-27T07:09:50.453Z,94852.00
2023-04-27T07:10:50.520Z,94852.00
2023-04-27T07:11:50.442Z,94855.00
2023-04-27T07:12:50.448Z,94853.00
2023-04-27T07:13:50.403Z,94855.00
2023-04-27T07:14:50.423Z,94853.00
2023-04-27T07:15:50.469Z,94853.00
2023-04-27T07:16:50.401Z,94852.00
2023-04-27T07:17:50.419Z,94848.00
2023-04-27T07:18:50.831Z,94848.00
2023-04-27T07:19:50.421Z,94850.00
2023-04-27T07:20:50.547Z,94848.00
2023-04-27T07:21:50.362Z,94848.00
2023-04-27T07:22:50.377Z,94846.00
2023-04-27T07:23:50.344Z,94846.00
2023-04-27T07:24:50.412Z,94844.00
2023-04-27T07:25:50.793Z,94848.00
2023-04-27T07:26:50.348Z,94846.00
2023-04-27T07:27:50.314Z,94846.00
2023-04-27T07:28:50.346Z,94848.00
2023-04-27T07:29:50.401Z,94848.00
2023-04-27T07:30:50.774Z,94853.00
2023-04-27T07:31:52.181Z,94853.00
2023-04-27T07:32:50.416Z,94853.00
2023-04-27T07:33:50.325Z,94853.00
2023-04-27T07:34:53.970Z,94853.00
2023-04-27T07:35:50.799Z,94853.00
2023-04-27T07:36:50.277Z,94853.00
2023-04-27T07:37:50.298Z,94852.00
2023-04-27T07:38:50.278Z,94857.00
2023-04-27T07:39:50.361Z,94859.00
2023-04-27T07:40:50.404Z,94859.00
2023-04-27T07:41:50.362Z,94863.00
2023-04-27T07:42:50.279Z,94865.00
2023-04-27T07:43:50.321Z,94861.00
2023-04-27T07:44:50.315Z,94863.00
2023-04-27T07:45:50.304Z,94865.00
2023-04-27T07:46:50.222Z,94863.00
2023-04-27T07:47:50.249Z,94865.00
2023-04-27T07:48:50.304Z,94865.00
2023-04-27T07:49:50.232Z,94863.00
2023-04-27T07:50:50.294Z,94863.00
2023-04-27T07:51:50.158Z,94863.00
2023-04-27T07:52:50.157Z,94861.00
2023-04-27T07:53:50.152Z,94869.00
2023-04-27T07:54:50.161Z,94869.00
2023-04-27T07:55:50.379Z,94865.00
2023-04-27T07:56:50.118Z,94867.00
2023-04-27T07:57:50.105Z,94869.00
2023-04-27T07:58:50.119Z,94871.00
2023-04-27T07:59:50.105Z,94871.00
2023-04-27T08:00:50.097Z,94873.00
2023-04-27T08:01:50.182Z,94869.00
2023-04-27T08:02:50.368Z,94869.00
2023-04-27T08:03:50.491Z,94873.00
2023-04-27T08:04:50.377Z,94875.00
2023-04-27T08:05:50.509Z,94877.00
2023-04-27T08:06:50.619Z,94875.00
2023-04-27T08:07:50.179Z,94877.00
2023-04-27T08:08:50.090Z,94877.00
2023-04-27T08:09:50.032Z,94875.00
2023-04-27T08:10:50.189Z,94877.00
2023-04-27T08:11:50.039Z,94881.00
2023-04-27T08:12:50.012Z,94875.00
2023-04-27T08:13:50.035Z,94879.00
2023-04-27T08:14:49.988Z,94879.00
2023-04-27T08:15:49.998Z,94881.00
2023-04-27T08:16:50.054Z,94879.00
2023-04-27T08:17:50.001Z,94879.00
2023-04-27T08:18:49.954Z,94879.00
2023-04-27T08:19:49.957Z,94873.00
2023-04-27T08:20:49.957Z,94875.00
2023-04-27T08:21:49.941Z,94875.00
2023-04-27T08:22:49.953Z,94873.00
2023-04-27T08:23:49.933Z,94875.00
2023-04-27T08:24:49.926Z,94875.00
2023-04-27T08:25:49.941Z,94877.00
2023-04-27T08:26:50.051Z,94877.00
2023-04-27T08:27:49.944Z,94877.00
2023-04-27T08:28:49.960Z,94881.00
2023-04-27T08:29:49.881Z,94883.00
2023-04-27T08:30:49.887Z,94877.00
2023-04-27T08:31:49.946Z,94877.00
2023-04-27T08:32:50.815Z,94875.00
2023-04-27T08:33:49.898Z,94871.00
2023-04-27T08:34:49.858Z,94875.00
2023-04-27T08:35:50.302Z,94871.00
2023-04-27T08:36:49.914Z,94871.00
2023-04-27T08:37:49.904Z,94871.00
2023-04-27T08:38:49.886Z,94865.00
2023-04-27T08:39:49.853Z,94867.00
2023-04-27T08:40:49.892Z,94863.00
2023-04-27T08:41:49.926Z,94867.00
2023-04-27T08:42:49.832Z,94863.00
2023-04-27T08:43:50.005Z,94867.00
2023-04-27T08:44:49.913Z,94865.00
2023-04-27T08:45:49.947Z,94865.00
2023-04-27T08:46:49.952Z,94867.00
2023-04-27T08:47:49.967Z,94863.00
2023-04-27T08:48:49.927Z,94865.00
2023-04-27T08:49:50.015Z,94865.00
2023-04-27T08:50:50.079Z,94861.00
2023-04-27T08:51:49.999Z,94863.00
2023-04-27T08:52:50.052Z,94861.00
2023-04-27T08:53:50.130Z,94859.00
2023-04-27T08:54:50.100Z,94857.00
2023-04-27T08:55:50.189Z,94861.00
2023-04-27T08:56:50.179Z,94857.00
2023-04-27T08:57:50.204Z,94859.00
2023-04-27T08:58:50.230Z,94859.00
2023-04-27T08:59:50.284Z,94857.00
2023-04-27T09:00:52.451Z,94859.00
2023-04-27T09:01:50.364Z,94859.00
2023-04-27T09:02:50.471Z,94859.00
2023-04-27T09:03:50.538Z,94859.00
2023-04-27T09:04:50.608Z,94859.00
2023-04-27T09:06:02.986Z,94861.00
2023-04-27T09:06:51.522Z,94861.00
2023-04-27T09:07:50.485Z,94863.00
2023-04-27T09:08:50.592Z,94853.00
2023-04-27T09:09:50.490Z,94853.00
2023-04-27T09:10:50.521Z,94855.00
2023-04-27T09:11:50.452Z,94859.00
2023-04-27T09:12:50.468Z,94859.00
2023-04-27T09:13:50.440Z,94857.00
2023-04-27T09:14:50.420Z,94855.00
2023-04-27T09:15:50.493Z,94850.00
2023-04-27T09:16:50.487Z,94848.00
2023-04-27T09:17:50.446Z,94846.00
2023-04-27T09:18:50.410Z,94844.00
2023-04-27T09:19:50.405Z,94846.00
2023-04-27T09:20:50.412Z,94842.00
2023-04-27T09:21:50.442Z,94840.00
2023-04-27T09:22:50.597Z,94844.00
2023-04-27T09:23:50.544Z,94838.00
2023-04-27T09:24:50.605Z,94836.00
2023-04-27T09:25:50.629Z,94834.00
2023-04-27T09:26:50.729Z,94836.00
2023-04-27T09:27:50.766Z,94836.00
2023-04-27T09:28:50.808Z,94836.00
2023-04-27T09:29:50.786Z,94836.00
2023-04-27T09:30:50.831Z,94834.00
2023-04-27T09:31:50.948Z,94836.00
2023-04-27T09:32:50.965Z,94834.00
2023-04-27T09:33:50.988Z,94834.00
2023-04-27T09:34:51.036Z,94830.00
2023-04-27T09:35:51.101Z,94828.00
2023-04-27T09:36:51.198Z,94830.00
2023-04-27T09:37:51.198Z,94826.00
2023-04-27T09:38:51.356Z,94830.00
2023-04-27T09:39:51.300Z,94828.00
2023-04-27T09:40:51.321Z,94824.00
2023-04-27T09:41:51.376Z,94820.00
2023-04-27T09:42:51.379Z,94824.00
2023-04-27T09:43:51.830Z,94818.00
2023-04-27T09:44:51.374Z,94822.00
2023-04-27T09:45:51.420Z,94818.00
2023-04-27T09:46:51.467Z,94822.00
2023-04-27T09:47:51.533Z,94820.00
2023-04-27T09:48:51.392Z,94820.00
2023-04-27T09:49:51.383Z,94818.00
2023-04-27T09:50:51.352Z,94822.00
2023-04-27T09:51:51.350Z,94820.00
2023-04-27T09:52:51.353Z,94816.00
2023-04-27T09:53:51.364Z,94810.00
2023-04-27T09:54:51.389Z,94808.00
2023-04-27T09:55:51.776Z,94806.00
2023-04-27T09:56:51.460Z,94801.00
2023-04-27T09:57:51.551Z,94799.00
2023-04-27T09:58:51.675Z,94805.00
2023-04-27T09:59:51.665Z,94803.00
2023-04-27T10:00:51.694Z,94805.00
2023-04-27T10:01:51.768Z,94801.00
2023-04-27T10:02:53.625Z,94801.00
2023-04-27T10:03:51.972Z,94797.00
2023-04-27T10:04:52.077Z,94793.00
2023-04-27T10:05:51.987Z,94787.00
2023-04-27T10:06:52.001Z,94781.00
2023-04-27T10:07:52.038Z,94779.00
2023-04-27T10:08:52.069Z,94777.00
2023-04-27T10:09:52.113Z,94785.00
2023-04-27T10:10:52.133Z,94781.00
2023-04-27T10:11:52.200Z,94781.00
2023-04-27T10:12:52.295Z,94779.00
2023-04-27T10:13:53.123Z,94777.00
2023-04-27T10:14:52.285Z,94773.00
2023-04-27T10:15:52.301Z,94773.00
2023-04-27T10:16:52.389Z,94771.00
2023-04-27T10:17:52.397Z,94769.00
2023-04-27T10:18:52.415Z,94773.00
2023-04-27T10:19:54.299Z,94767.00
2023-04-27T10:20:52.625Z,94767.00
2023-04-27T10:21:52.687Z,94769.00
2023-04-27T10:22:52.718Z,94773.00
2023-04-27T10:23:52.742Z,94775.00
2023-04-27T10:24:52.856Z,94773.00
2023-04-27T10:25:52.825Z,94771.00
2023-04-27T10:26:52.855Z,94773.00
2023-04-27T10:27:52.921Z,94767.00
2023-04-27T10:28:52.985Z,94767.00
2023-04-27T10:29:53.370Z,94761.00
2023-04-27T10:30:53.123Z,94759.00
2023-04-27T10:31:53.187Z,94759.00
2023-04-27T10:32:53.357Z,94753.00
2023-04-27T10:33:53.228Z,94753.00
2023-04-27T10:34:53.290Z,94755.00
2023-04-27T10:35:53.369Z,94757.00
2023-04-27T10:36:53.392Z,94757.00
2023-04-27T10:37:53.455Z,94755.00
2023-04-27T10:38:53.531Z,94753.00
2023-04-27T10:39:54.894Z,94753.00
2023-04-27T10:40:53.645Z,94751.00
2023-04-27T10:41:53.893Z,94750.00
2023-04-27T10:42:53.829Z,94748.00
2023-04-27T10:43:53.768Z,94748.00
2023-04-27T10:44:53.846Z,94750.00
2023-04-27T10:45:53.894Z,94744.00
2023-04-27T10:46:53.886Z,94748.00
2023-04-27T10:47:54.135Z,94744.00
2023-04-27T10:48:53.977Z,94742.00
2023-04-27T10:49:54.008Z,94740.00
2023-04-27T10:50:54.006Z,94738.00
2023-04-27T10:51:54.090Z,94732.00
2023-04-27T10:52:54.091Z,94726.00
2023-04-27T10:53:54.131Z,94726.00
2023-04-27T10:54:54.158Z,94726.00
2023-04-27T10:55:54.231Z,94726.00
2023-04-27T10:56:54.229Z,94722.00
2023-04-27T10:57:54.324Z,94722.00
2023-04-27T10:58:54.274Z,94724.00
2023-04-27T10:59:54.336Z,94722.00
2023-04-27T11:00:54.414Z,94720.00
2023-04-27T11:01:54.437Z,94720.00
2023-04-27T11:02:54.562Z,94718.00
2023-04-27T11:03:54.554Z,94718.00
2023-04-27T11:04:54.544Z,94716.00
2023-04-27T11:05:54.559Z,94714.00
2023-04-27T11:06:54.625Z,94718.00
2023-04-27T11:07:54.677Z,94716.00
2023-04-27T11:08:54.703Z,94714.00
2023-04-27T11:09:54.797Z,94712.00
2023-04-27T11:10:54.810Z,94714.00
2023-04-27T11:11:54.863Z,94714.00
2023-04-27T11:12:54.935Z,94712.00
2023-04-27T11:13:54.969Z,94712.00
2023-04-27T11:14:55.022Z,94712.00
2023-04-27T11:15:55.103Z,94716.00
2023-04-27T11:16:55.110Z,94718.00
2023-04-27T11:17:55.177Z,94720.00
2023-04-27T11:18:55.207Z,94718.00
2023-04-27T11:19:55.256Z,94716.00
2023-04-27T11:20:55.882Z,94718.00
2023-04-27T11:21:55.866Z,94722.00
2023-04-27T11:22:55.402Z,94720.00
2023-04-27T11:23:55.460Z,94722.00
2023-04-27T11:24:55.879Z,94720.00
2023-04-27T11:25:55.557Z,94718.00
2023-04-27T11:26:55.864Z,94716.00
2023-04-27T11:27:55.676Z,94718.00
2023-04-27T11:28:55.695Z,94718.00
2023-04-27T11:29:55.872Z,94714.00
2023-04-27T11:30:55.808Z,94714.00
2023-04-27T11:31:56.014Z,94712.00
2023-04-27T11:32:55.936Z,94711.00
2023-04-27T11:33:56.275Z,94711.00
2023-04-27T11:34:58.422Z,94711.00
2023-04-27T11:35:55.992Z,94707.00
2023-04-27T11:37:03.694Z,94712.00
2023-04-27T11:37:56.975Z,94709.00
2023-04-27T11:38:55.932Z,94705.00
2023-04-27T11:39:56.031Z,94705.00
2023-04-27T11:40:55.910Z,94705.00
2023-04-27T11:41:56.041Z,94701.00
2023-04-27T11:42:55.955Z,94703.00
2023-04-27T11:43:55.894Z,94701.00
2023-04-27T11:44:55.898Z,94703.00